Time;durP1;ratioP1;P1;durP2;ratioP2;P2;SDS_P1;SDS_P2;PMS_P1;PMS_P2;Temp;Humidity;BMP_temperature;BMP_pressure;BME280_temperature;BME280_humidity;BME280_pressure;Samples;Min_cycle;Max_cycle;Signal;HPM_P1;HPM_P2
2021/08/06 00:01:54;;;;;;;1.60;1.50;;;14.60;99.90;;;;;;6285964;22;20019;-87
2021/08/06 00:04:41;;;;;;;2.53;1.15;;;14.50;99.90;;;;;;6284941;22;20075;-88
2021/08/06 00:07:28;;;;;;;1.30;1.20;;;14.50;99.90;;;;;;6304611;22;20027;-88
2021/08/06 00:10:16;;;;;;;1.20;1.10;;;14.40;99.90;;;;;;6307636;22;20119;-87
2021/08/06 00:13:04;;;;;;;1.33;1.10;;;14.40;99.90;;;;;;6308713;22;20023;-86
2021/08/06 00:15:51;;;;;;;1.42;1.20;;;14.30;99.90;;;;;;6284783;22;20034;-87
2021/08/06 00:18:39;;;;;;;1.92;1.25;;;14.30;99.90;;;;;;6307617;22;20088;-90
2021/08/06 00:21:26;;;;;;;2.58;1.40;;;14.20;99.90;;;;;;6263219;22;20122;-88
2021/08/06 00:24:14;;;;;;;2.97;1.25;;;14.20;99.90;;;;;;6285958;22;20040;-87
2021/08/06 00:27:04;;;;;;;5.30;1.60;;;14.20;99.90;;;;;;6284254;22;20027;-88
2021/08/06 00:29:53;;;;;;;4.97;1.52;;;14.10;99.90;;;;;;6284287;22;20096;-88
2021/08/06 00:32:41;;;;;;;3.47;1.30;;;14.10;99.90;;;;;;6306006;22;20042;-88
2021/08/06 00:35:29;;;;;;;1.77;1.42;;;14.10;99.90;;;;;;6308281;22;20023;-87
2021/08/06 00:38:20;;;;;;;3.22;1.42;;;14.10;99.90;;;;;;6284536;22;20130;-86
2021/08/06 00:41:09;;;;;;;2.05;1.58;;;14.10;99.90;;;;;;6284782;22;20027;-88
2021/08/06 00:43:57;;;;;;;2.85;1.55;;;14.10;99.90;;;;;;6283997;22;20676;-87
2021/08/06 00:46:44;;;;;;;3.55;1.38;;;14.10;99.90;;;;;;6263932;22;20039;-87
2021/08/06 00:49:32;;;;;;;2.33;1.50;;;14.10;99.90;;;;;;6284337;22;20027;-87
2021/08/06 00:52:22;;;;;;;6.32;2.03;;;14.00;99.90;;;;;;6283668;22;20034;-87
2021/08/06 00:55:10;;;;;;;2.72;1.50;;;14.00;99.90;;;;;;6283164;22;20075;-87
2021/08/06 00:57:57;;;;;;;4.45;1.58;;;14.00;99.90;;;;;;6283373;22;20023;-86
2021/08/06 01:00:49;;;;;;;2.05;1.70;;;14.00;99.90;;;;;;6261792;22;20091;-87
2021/08/06 01:03:56;;;;;;;3.60;1.58;;;14.00;99.90;;;;;;6305441;22;20068;-88
2021/08/06 01:06:57;;;;;;;3.70;1.70;;;13.90;99.90;;;;;;6282976;22;20361;-87
2021/08/06 01:09:52;;;;;;;2.25;1.70;;;14.00;99.90;;;;;;6305242;22;20031;-88
2021/08/06 01:12:55;;;;;;;3.92;1.50;;;14.00;99.90;;;;;;6303490;22;20487;-88
2021/08/06 01:15:51;;;;;;;1.60;1.50;;;13.90;99.90;;;;;;6306997;22;20077;-88
2021/08/06 01:19:18;;;;;;;3.10;2.05;;;14.00;99.90;;;;;;6303674;22;20023;-87
2021/08/06 01:22:20;;;;;;;1.85;1.70;;;14.00;99.90;;;;;;6303730;22;20023;-88
2021/08/06 01:25:13;;;;;;;2.47;1.70;;;13.90;99.90;;;;;;6307997;22;20024;-88
2021/08/06 01:28:02;;;;;;;6.55;1.67;;;14.00;99.90;;;;;;6303946;22;20395;-88
2021/08/06 01:30:51;;;;;;;1.60;1.50;;;13.90;99.90;;;;;;6306799;22;20027;-87
2021/08/06 01:33:39;;;;;;;3.30;1.60;;;13.90;99.90;;;;;;6305161;22;20027;-87
2021/08/06 01:36:27;;;;;;;3.50;1.60;;;13.80;99.90;;;;;;6284894;22;20035;-86
2021/08/06 01:39:16;;;;;;;1.88;1.77;;;13.80;99.90;;;;;;6304712;22;20116;-87
2021/08/06 01:42:15;;;;;;;2.80;1.85;;;13.80;99.90;;;;;;6282232;22;20027;-87
2021/08/06 01:45:08;;;;;;;2.20;1.73;;;13.80;99.90;;;;;;6306746;22;20464;-86
2021/08/06 01:47:56;;;;;;;2.28;1.52;;;13.80;99.90;;;;;;6281361;22;20023;-87
2021/08/06 01:50:45;;;;;;;3.30;1.80;;;13.90;99.90;;;;;;6307089;22;20033;-87
2021/08/06 01:53:39;;;;;;;1.95;1.50;;;14.00;99.90;;;;;;6306423;22;20031;-88
2021/08/06 01:56:31;;;;;;;2.50;1.58;;;14.10;99.90;;;;;;6305896;22;20341;-87
2021/08/06 01:59:19;;;;;;;2.33;1.48;;;14.20;99.90;;;;;;6304993;22;20030;-87
2021/08/06 02:02:08;;;;;;;4.82;1.45;;;14.30;99.90;;;;;;6260929;22;20053;-87
2021/08/06 02:04:58;;;;;;;4.50;1.85;;;14.40;99.90;;;;;;6303481;22;20371;-86
2021/08/06 02:07:46;;;;;;;2.55;1.42;;;14.50;99.90;;;;;;6304760;22;20057;-86
2021/08/06 02:10:35;;;;;;;1.33;1.23;;;14.60;99.90;;;;;;6306255;22;20031;-88
2021/08/06 02:13:23;;;;;;;5.32;1.75;;;14.70;99.90;;;;;;6305077;22;20398;-86
2021/08/06 02:16:11;;;;;;;5.50;1.50;;;14.70;99.90;;;;;;6306152;22;20034;-88
2021/08/06 02:19:01;;;;;;;1.95;1.45;;;14.70;99.90;;;;;;6305943;22;20515;-85
2021/08/06 02:21:53;;;;;;;1.48;1.30;;;14.80;99.90;;;;;;6281880;22;20027;-87
2021/08/06 02:24:42;;;;;;;;;;;14.80;99.90;;;;;;6303224;22;20023;-87
2021/08/06 02:27:32;;;;;;;2.00;1.40;;;14.80;99.90;;;;;;6304524;22;19943;-89
2021/08/06 02:30:23;;;;;;;4.25;1.77;;;14.80;99.90;;;;;;6284400;22;20383;-88
2021/08/06 02:33:12;;;;;;;4.95;1.52;;;14.80;99.90;;;;;;6310418;22;20031;-88
2021/08/06 02:36:02;;;;;;;2.92;1.80;;;14.80;99.90;;;;;;6306946;22;20492;-88
2021/08/06 02:38:55;;;;;;;3.08;1.48;;;14.80;99.90;;;;;;6304711;22;20092;-86
2021/08/06 02:41:46;;;;;;;3.13;1.63;;;14.80;99.90;;;;;;6306255;22;20023;-88
2021/08/06 02:44:38;;;;;;;1.98;1.60;;;14.80;99.90;;;;;;6284363;22;20023;-88
2021/08/06 02:47:26;;;;;;;3.05;1.25;;;14.80;99.90;;;;;;6281526;22;20027;-87
2021/08/06 02:50:14;;;;;;;2.55;1.77;;;14.80;99.90;;;;;;6305856;22;20034;-87
2021/08/06 02:53:02;;;;;;;3.03;2.20;;;14.80;99.90;;;;;;6284321;22;20027;-86
2021/08/06 02:55:50;;;;;;;7.13;2.83;;;14.80;99.90;;;;;;6260551;22;20034;-87
2021/08/06 02:58:38;;;;;;;4.07;2.10;;;14.70;99.90;;;;;;6305222;22;20027;-86
2021/08/06 03:01:25;;;;;;;3.75;2.63;;;14.60;99.90;;;;;;6308912;22;20038;-87
2021/08/06 03:04:15;;;;;;;3.38;2.22;;;14.70;99.90;;;;;;6312280;22;20024;-87
2021/08/06 03:07:03;;;;;;;6.85;1.67;;;14.60;99.90;;;;;;6297305;22;20027;-87
2021/08/06 03:09:51;;;;;;;9.80;1.95;;;14.80;99.90;;;;;;6301086;22;20027;-88
2021/08/06 03:12:39;;;;;;;2.20;1.85;;;14.80;99.90;;;;;;6292896;22;20429;-87
2021/08/06 03:15:26;;;;;;;1.65;1.55;;;14.80;99.90;;;;;;6285685;22;20035;-86
2021/08/06 03:18:13;;;;;;;1.95;1.75;;;14.70;99.90;;;;;;6305411;22;20081;-86
2021/08/06 03:21:01;;;;;;;3.35;1.83;;;14.70;99.90;;;;;;6307011;22;20409;-86
2021/08/06 03:23:49;;;;;;;1.70;1.60;;;14.60;99.90;;;;;;6304714;22;20019;-87
2021/08/06 03:26:36;;;;;;;6.88;1.80;;;14.50;99.90;;;;;;6261918;22;20452;-86
2021/08/06 03:29:23;;;;;;;1.77;1.63;;;14.40;99.90;;;;;;6306175;22;20180;-87
2021/08/06 03:32:11;;;;;;;1.85;1.48;;;14.40;99.90;;;;;;6305940;22;20612;-84
2021/08/06 03:34:58;;;;;;;6.18;1.80;;;14.30;99.90;;;;;;6304966;22;20329;-86
2021/08/06 03:37:46;;;;;;;4.25;2.40;;;14.30;99.90;;;;;;6263707;22;20015;-86
2021/08/06 03:40:36;;;;;;;3.83;1.80;;;14.20;99.90;;;;;;6306405;22;20030;-86
2021/08/06 03:43:23;;;;;;;3.33;2.05;;;14.10;99.90;;;;;;6285058;22;20092;-87
2021/08/06 03:46:11;;;;;;;3.25;2.00;;;14.00;99.90;;;;;;6309343;22;20023;-86
2021/08/06 03:48:58;;;;;;;3.03;2.00;;;14.00;99.90;;;;;;6305074;22;20303;-87
2021/08/06 03:51:48;;;;;;;2.63;2.28;;;14.00;99.90;;;;;;6286341;22;20042;-88
2021/08/06 03:54:36;;;;;;;8.02;2.80;;;13.90;99.90;;;;;;6304885;22;20410;-85
2021/08/06 03:57:24;;;;;;;8.82;3.00;;;13.80;99.90;;;;;;6304568;22;20030;-88
2021/08/06 04:00:15;;;;;;;3.75;2.90;;;13.70;99.90;;;;;;6307160;22;20419;-86
2021/08/06 04:07:00;;;;;;;9.20;3.17;;;13.60;99.90;;;;;;6308143;22;20110;-89
2021/08/06 04:10:10;;;;;;;7.47;3.40;;;13.60;99.90;;;;;;6287865;22;20023;-87
2021/08/06 04:12:59;;;;;;;8.52;4.25;;;13.50;99.90;;;;;;6305388;22;20049;-90
2021/08/06 04:20:12;;;;;;;5.03;4.53;;;13.60;99.90;;;;;;6153519;23;20096;-90
2021/08/06 04:27:27;;;;;;;8.75;4.20;;;13.70;99.90;;;;;;6094886;23;20097;-89
2021/08/06 04:47:28;;;;;;;5.88;3.42;;;13.90;99.90;;;;;;6092558;23;20446;-90
2021/08/06 04:54:19;;;;;;;6.80;4.35;;;13.80;99.90;;;;;;6127207;23;20025;-86
2021/08/06 04:57:06;;;;;;;5.70;4.43;;;13.80;99.90;;;;;;6263850;22;20031;-85
2021/08/06 04:59:54;;;;;;;5.50;5.00;;;13.80;99.90;;;;;;6282391;22;20023;-85
2021/08/06 05:02:41;;;;;;;6.30;5.00;;;13.70;99.90;;;;;;6304178;22;20023;-86
2021/08/06 05:05:29;;;;;;;9.95;5.47;;;13.70;99.90;;;;;;6305323;22;20093;-85
2021/08/06 05:08:18;;;;;;;8.02;5.28;;;13.70;99.90;;;;;;6286207;22;20029;-84
2021/08/06 05:11:09;;;;;;;6.32;4.85;;;13.60;99.90;;;;;;6315908;22;20027;-83
2021/08/06 05:13:59;;;;;;;7.82;5.13;;;13.60;99.90;;;;;;6296038;22;20100;-85
2021/08/06 05:16:48;;;;;;;7.68;5.25;;;13.60;99.90;;;;;;6311982;22;20092;-83
2021/08/06 05:19:39;;;;;;;10.63;5.30;;;13.60;99.90;;;;;;6309288;22;20283;-82
2021/08/06 05:22:26;;;;;;;7.78;6.18;;;13.60;99.90;;;;;;6304991;22;20047;-86
2021/08/06 05:25:16;;;;;;;12.32;6.38;;;13.60;99.90;;;;;;6286671;22;20027;-83
2021/08/06 05:28:06;;;;;;;8.32;6.28;;;13.60;99.90;;;;;;6288978;22;20045;-82
2021/08/06 05:30:55;;;;;;;7.15;5.97;;;13.60;99.90;;;;;;6307673;22;20114;-83
2021/08/06 05:33:42;;;;;;;9.73;5.57;;;13.60;99.90;;;;;;6307354;22;20035;-84
2021/08/06 05:36:29;;;;;;;7.57;5.38;;;13.70;99.90;;;;;;6283493;22;20073;-87
2021/08/06 05:39:25;;;;;;;8.20;5.72;;;13.70;99.90;;;;;;6305367;22;20403;-88
2021/08/06 05:42:12;;;;;;;12.20;5.63;;;13.80;99.90;;;;;;6305039;22;20034;-88
2021/08/06 05:45:04;;;;;;;7.85;5.80;;;13.80;99.90;;;;;;6307293;22;20113;-89
2021/08/06 05:48:05;;;;;;;6.22;4.43;;;13.90;99.90;;;;;;6289234;22;20098;-87
2021/08/06 05:50:55;;;;;;;7.22;4.68;;;13.90;99.90;;;;;;6284664;22;20064;-85
2021/08/06 10:27:13;;;;;;;4.60;1.48;;;18.30;99.90;;;;;;6246438;22;20784;31
2021/08/06 10:30:04;;;;;;;2.60;1.38;;;17.60;99.90;;;;;;6260206;22;19994;-89
2021/08/06 10:33:10;;;;;;;2.53;1.15;;;17.60;99.90;;;;;;6279587;22;20027;-87
2021/08/06 10:36:06;;;;;;;2.45;1.15;;;17.70;99.90;;;;;;6255753;22;20407;-88
2021/08/06 10:38:53;;;;;;;3.58;1.48;;;18.00;99.90;;;;;;6255306;22;20028;-89
2021/08/06 10:41:49;;;;;;;2.35;1.00;;;18.40;99.90;;;;;;6254593;22;20070;-88
2021/08/06 10:44:53;;;;;;;2.25;0.90;;;18.60;99.90;;;;;;6255311;22;20027;-89
2021/08/06 10:48:30;;;;;;;1.98;1.00;;;18.80;99.90;;;;;;6278777;22;20031;-93
2021/08/06 10:51:34;;;;;;;2.55;1.02;;;18.80;99.90;;;;;;6256557;22;20048;-91
2021/08/06 10:55:22;;;;;;;7.88;1.40;;;19.00;99.90;;;;;;6278866;22;20039;-92
2021/08/06 11:02:37;;;;;;;2.47;0.98;;;18.70;99.90;;;;;;6262094;22;20024;-92
2021/08/06 11:06:23;;;;;;;3.78;1.17;;;18.80;99.90;;;;;;6278227;22;20128;-92
2021/08/06 11:14:54;;;;;;;1.45;0.77;;;18.80;99.90;;;;;;6020549;23;20015;-92
2021/08/06 11:18:53;;;;;;;1.63;1.00;;;18.90;99.90;;;;;;6072042;23;20027;-91
2021/08/06 11:21:52;;;;;;;2.80;1.10;;;18.70;99.90;;;;;;6133215;23;20099;-89
2021/08/06 11:24:43;;;;;;;1.95;0.80;;;20.50;99.90;;;;;;6279409;22;20024;-91
2021/08/06 11:28:07;;;;;;;1.48;0.77;;;21.70;99.90;;;;;;6275795;22;20024;-91
2021/08/06 11:31:21;;;;;;;2.53;1.00;;;22.50;99.90;;;;;;6154726;23;20116;-90
2021/08/06 11:34:53;;;;;;;1.95;0.90;;;22.70;95.10;;;;;;6152051;23;20100;-89
2021/08/06 11:38:11;;;;;;;4.38;1.00;;;22.00;96.00;;;;;;6152392;23;20417;-89
2021/08/06 11:41:02;;;;;;;2.15;0.85;;;21.10;99.10;;;;;;6154714;23;20025;-91
2021/08/06 11:43:53;;;;;;;3.15;1.08;;;21.90;97.40;;;;;;6154407;23;20025;-89
2021/08/06 11:47:01;;;;;;;1.67;0.95;;;23.00;93.40;;;;;;6135308;23;20067;-90
2021/08/06 11:49:59;;;;;;;2.08;0.80;;;23.40;92.80;;;;;;6134468;23;20228;-90
2021/08/06 11:52:50;;;;;;;2.13;0.95;;;22.70;91.30;;;;;;6156299;23;20061;-92
2021/08/06 11:55:38;;;;;;;3.08;0.90;;;21.90;93.20;;;;;;6156365;23;20433;-89
2021/08/06 11:58:33;;;;;;;1.77;0.98;;;22.00;93.60;;;;;;6185993;23;20147;-90
2021/08/06 12:01:22;;;;;;;1.35;0.60;;;21.90;94.20;;;;;;6208926;23;20072;-90
2021/08/06 12:04:11;;;;;;;3.13;1.00;;;21.30;94.50;;;;;;6246964;23;20035;-89
2021/08/06 12:06:58;;;;;;;4.07;1.00;;;21.40;95.50;;;;;;6232364;23;20420;-90
2021/08/06 12:09:45;;;;;;;5.40;1.00;;;21.50;95.10;;;;;;6254950;23;20020;-91
2021/08/06 12:12:49;;;;;;;3.13;1.20;;;21.50;95.30;;;;;;6257487;23;20023;-91
2021/08/06 12:15:37;;;;;;;2.97;0.90;;;21.40;95.60;;;;;;6249351;23;20047;-92
2021/08/06 12:18:27;;;;;;;4.68;0.93;;;21.10;95.80;;;;;;6226243;23;20023;-91
2021/08/06 12:21:21;;;;;;;2.17;0.90;;;21.50;94.80;;;;;;6245391;23;20031;-92
2021/08/06 12:24:15;;;;;;;2.15;0.93;;;22.70;91.30;;;;;;6249918;22;20111;-94
2021/08/06 12:27:03;;;;;;;1.10;0.70;;;22.60;90.50;;;;;;6246328;23;20035;-90
2021/08/06 12:29:50;;;;;;;2.70;1.00;;;22.70;90.70;;;;;;6272273;22;20019;-90
2021/08/06 12:32:41;;;;;;;5.45;1.20;;;22.70;89.50;;;;;;6278403;22;20093;-92
2021/08/06 12:35:28;;;;;;;2.15;0.70;;;23.60;88.80;;;;;;6286614;22;20031;-89
2021/08/06 12:38:23;;;;;;;2.35;0.75;;;25.20;78.50;;;;;;6289839;22;20023;-92
2021/08/06 12:41:25;;;;;;;3.15;0.82;;;26.60;74.70;;;;;;6313304;22;20031;-89
2021/08/06 12:44:31;;;;;;;1.50;0.80;;;25.90;71.30;;;;;;6289711;22;20019;-91
2021/08/06 12:47:19;;;;;;;4.07;0.90;;;24.90;75.90;;;;;;6313159;22;20031;-89
2021/08/06 12:50:31;;;;;;;2.25;0.80;;;23.80;75.40;;;;;;6316949;22;20034;-93
2021/08/06 12:53:52;;;;;;;2.05;0.98;;;23.00;79.70;;;;;;6259280;22;20103;-90
2021/08/06 12:57:02;;;;;;;2.33;0.75;;;22.30;82.40;;;;;;6315400;22;20027;-90
2021/08/06 13:00:31;;;;;;;3.28;0.80;;;22.00;84.70;;;;;;6301079;22;20019;-91
2021/08/06 13:08:32;;;;;;;2.55;0.80;;;26.10;71.20;;;;;;6168191;23;20021;-92
2021/08/06 13:11:39;;;;;;;;;;;;;;;;;;;;;
2021/08/06 13:15:16;;;;;;;0.70;0.50;;;25.10;66.40;;;;;;6293743;22;20039;-92
2021/08/06 13:18:23;;;;;;;1.35;0.70;;;24.00;67.90;;;;;;6314630;22;20401;-91
2021/08/06 13:26:15;;;;;;;2.70;0.77;;;22.20;75.10;;;;;;6313553;22;20097;-92
2021/08/06 13:33:48;;;;;;;2.28;0.63;;;22.10;77.40;;;;;;6293162;22;20037;-92
2021/08/06 13:37:20;;;;;;;1.88;0.80;;;23.50;70.00;;;;;;6131014;23;20129;-93
2021/08/06 13:44:57;;;;;;;3.42;0.80;;;25.30;64.60;;;;;;6075515;23;20027;-94
2021/08/06 13:48:05;;;;;;;4.43;1.02;;;24.20;67.50;;;;;;6044481;23;20027;-91
2021/08/06 13:50:58;;;;;;;5.32;0.90;;;23.40;70.20;;;;;;6070020;23;20086;-91
2021/08/06 14:02:38;;;;;;;;;;;;;;;;;;;;;
2021/08/06 14:06:44;;;;;;;;;;;;;;;;;;;;;
2021/08/06 14:18:40;;;;;;;4.82;1.10;;;26.60;61.00;;;;;;6270116;22;20024;-93
2021/08/06 14:26:34;;;;;;;1.75;0.50;;;27.80;56.20;;;;;;5937386;24;20075;-93
2021/08/06 14:29:58;;;;;;;;;;;;;;;;;;;;;
2021/08/06 14:34:04;;;;;;;;;;;;;;;;;;;;;
2021/08/06 14:41:41;;;;;;;;;;;;;;;;;;;;;
2021/08/06 14:44:34;;;;;;;1.15;0.70;;;22.90;66.80;;;;;;5849240;24;20017;-93
2021/08/06 14:47:54;;;;;;;0.88;0.55;;;22.50;68.90;;;;;;5938730;24;20028;-93
2021/08/06 15:13:25;;;;;;;;;;;;;;;;;;;;;
2021/08/06 15:17:49;;;;;;;;;;;;;;;;;;;;;
2021/08/06 15:43:13;;;;;;;1.92;1.05;;;21.00;83.40;;;;;;4121604;22;20043;-94
2021/08/06 15:47:13;;;;;;;;;;;;;;;;;;;;;
2021/08/06 15:59:10;;;;;;;2.40;0.90;;;20.80;87.60;;;;;;4967133;28;20036;-92
2021/08/06 16:03:03;;;;;;;2.55;0.95;;;20.60;89.00;;;;;;4920526;29;20074;-93
2021/08/06 16:06:36;;;;;;;2.20;1.05;;;20.80;90.00;;;;;;4903690;29;20100;-92
2021/08/06 16:14:46;;;;;;;;;;;;;;;;;;;;;
2021/08/06 16:18:19;;;;;;;3.00;1.15;;;21.00;88.10;;;;;;4855554;29;20046;-92
2021/08/06 16:31:10;;;;;;;;;;;;;;;;;;;;;
2021/08/06 16:37:57;;;;;;;3.30;0.95;;;21.00;88.70;;;;;;4784437;29;20105;-93
2021/08/06 16:44:57;;;;;;;3.05;1.42;;;20.90;87.90;;;;;;4766255;30;20048;-90
2021/08/06 16:48:22;;;;;;;2.42;0.95;;;20.90;88.10;;;;;;4773501;30;20070;-89
2021/08/06 16:54:59;;;;;;;2.78;0.90;;;20.50;87.80;;;;;;4816460;29;20043;-94
2021/08/06 16:58:59;;;;;;;2.38;1.25;;;20.20;89.10;;;;;;4891694;29;20056;-93
2021/08/06 17:02:06;;;;;;;3.65;1.58;;;20.10;90.80;;;;;;4951775;29;20055;-94
2021/08/06 17:08:58;;;;;;;;;;;20.00;91.70;;;;;;4935703;29;20080;-91
2021/08/06 17:12:43;;;;;;;;;;;;;;;;;;;;;
2021/08/06 17:15:51;;;;;;;3.45;1.08;;;19.80;92.70;;;;;;4873670;29;20041;-93
2021/08/06 17:19:18;;;;;;;5.38;1.85;;;19.70;93.80;;;;;;4823575;29;20039;-91
2021/08/06 17:22:09;;;;;;;3.28;1.17;;;19.70;94.20;;;;;;4829956;29;20102;-91
2021/08/06 17:25:31;;;;;;;10.75;2.53;;;19.70;94.50;;;;;;4852764;29;20064;-92
2021/08/06 18:18:57;;;;;;;;;;;;;;;;;;;;;
2021/08/06 18:22:49;;;;;;;4.07;1.25;;;18.60;99.90;;;;;;4998652;28;20121;-92
2021/08/06 18:26:10;;;;;;;3.72;1.48;;;18.50;99.90;;;;;;4986585;28;20042;-92
2021/08/06 18:29:08;;;;;;;5.55;1.58;;;18.30;99.90;;;;;;4988045;28;20043;-94
2021/08/06 18:32:00;;;;;;;7.70;3.17;;;18.10;99.90;;;;;;4985658;28;20403;-93
2021/08/06 18:34:54;;;;;;;5.82;2.30;;;18.00;99.90;;;;;;4981159;28;20594;-91
2021/08/06 18:37:46;;;;;;;5.35;2.33;;;17.90;99.90;;;;;;4982837;28;20392;-91
2021/08/06 18:40:40;;;;;;;6.55;2.00;;;17.80;99.90;;;;;;5064912;28;20056;-92
2021/08/06 18:43:36;;;;;;;5.47;2.13;;;17.70;99.90;;;;;;5075706;28;20048;-92
2021/08/06 18:46:23;;;;;;;5.10;1.65;;;17.60;99.90;;;;;;5074076;28;20044;-92
2021/08/06 18:49:11;;;;;;;5.70;1.75;;;17.60;99.90;;;;;;5078208;28;20041;-91
2021/08/06 18:52:02;;;;;;;5.20;1.50;;;17.50;99.90;;;;;;5092063;28;20143;-90
2021/08/06 18:54:50;;;;;;;3.22;1.60;;;17.50;99.90;;;;;;5093154;28;20041;-91
2021/08/06 18:57:37;;;;;;;2.95;1.70;;;17.40;99.90;;;;;;5068155;28;20057;-90
2021/08/06 19:00:28;;;;;;;5.50;2.00;;;17.40;99.90;;;;;;5081878;28;20051;-91
2021/08/06 19:03:24;;;;;;;6.43;2.45;;;17.40;99.90;;;;;;5094941;28;20086;-91
2021/08/06 19:06:12;;;;;;;3.90;1.90;;;17.30;99.90;;;;;;5075397;28;20033;-90
2021/08/06 19:09:01;;;;;;;7.78;2.08;;;17.30;99.90;;;;;;5085698;28;20041;-91
2021/08/06 19:11:49;;;;;;;6.43;2.25;;;17.20;99.90;;;;;;5055746;28;20051;-90
2021/08/06 19:14:41;;;;;;;3.22;2.03;;;17.10;99.90;;;;;;5062338;28;20052;-92
2021/08/06 19:17:31;;;;;;;3.38;1.77;;;17.00;99.90;;;;;;5040358;28;20136;-89
2021/08/06 19:20:21;;;;;;;4.47;1.98;;;16.90;99.90;;;;;;5056069;28;20044;-90
2021/08/06 19:23:15;;;;;;;3.67;1.80;;;16.90;99.90;;;;;;5081642;28;21157;-91
2021/08/06 19:26:04;;;;;;;3.80;2.00;;;16.90;99.90;;;;;;5051492;28;20040;-89
2021/08/06 19:28:51;;;;;;;5.35;1.80;;;16.90;99.90;;;;;;5068093;28;20032;-89
2021/08/06 19:31:40;;;;;;;4.30;1.63;;;16.80;99.90;;;;;;5073560;28;20041;-92
2021/08/06 19:34:29;;;;;;;4.68;1.90;;;16.80;99.90;;;;;;5049742;28;20045;-90
2021/08/06 19:37:17;;;;;;;6.68;2.20;;;16.80;99.90;;;;;;5058745;28;20073;-89
2021/08/06 19:40:11;;;;;;;3.55;2.22;;;16.70;99.90;;;;;;5053171;28;20041;-90
2021/08/06 19:42:58;;;;;;;6.30;2.53;;;16.70;99.90;;;;;;5040009;28;20048;-89
2021/08/06 19:45:46;;;;;;;3.42;2.25;;;16.60;99.90;;;;;;5047203;28;20052;-90
2021/08/06 19:48:51;;;;;;;5.47;2.72;;;16.50;99.90;;;;;;5055326;28;20505;-90
2021/08/06 19:51:39;;;;;;;7.72;3.17;;;16.50;99.90;;;;;;5064941;28;20060;-90
2021/08/06 19:54:27;;;;;;;4.25;2.08;;;16.40;99.90;;;;;;5038792;28;20311;-89
2021/08/06 19:57:15;;;;;;;4.80;2.28;;;16.40;99.90;;;;;;5060105;28;20072;-88
2021/08/06 20:00:05;;;;;;;3.38;2.13;;;16.30;99.90;;;;;;5072607;28;20053;-89
2021/08/06 20:02:52;;;;;;;6.53;2.70;;;16.20;99.90;;;;;;5038217;28;20510;-89
2021/08/06 20:05:42;;;;;;;3.67;2.00;;;16.10;99.90;;;;;;5055777;28;20162;-90
2021/08/06 20:08:29;;;;;;;6.93;2.08;;;16.10;99.90;;;;;;5064552;28;20114;-90
2021/08/06 20:11:17;;;;;;;4.78;2.00;;;16.10;99.90;;;;;;5063170;28;20402;-88
2021/08/06 20:14:05;;;;;;;5.00;2.67;;;16.00;99.90;;;;;;5076859;28;20048;-89
2021/08/06 20:16:53;;;;;;;7.13;1.90;;;16.00;99.90;;;;;;5063417;28;20469;-90
2021/08/06 20:19:44;;;;;;;6.00;2.40;;;16.00;99.90;;;;;;5058117;28;20041;-91
2021/08/06 20:22:43;;;;;;;6.05;3.08;;;16.00;99.90;;;;;;5044775;28;20068;-89
2021/08/06 20:25:33;;;;;;;6.35;3.08;;;15.90;99.90;;;;;;5065838;28;20114;-91
2021/08/06 20:28:24;;;;;;;5.20;2.58;;;15.90;99.90;;;;;;5054639;28;20133;-89
2021/08/06 20:31:14;;;;;;;10.20;3.28;;;15.90;99.90;;;;;;5057240;28;20045;-89
2021/08/06 20:34:06;;;;;;;4.78;2.75;;;15.80;99.90;;;;;;5044895;28;20048;-87
2021/08/06 20:36:53;;;;;;;4.53;2.53;;;15.80;99.90;;;;;;5070910;28;20472;-90
2021/08/06 20:39:46;;;;;;;4.82;2.92;;;15.70;99.90;;;;;;5034356;28;20081;-88
2021/08/06 20:42:34;;;;;;;4.28;2.63;;;15.60;99.90;;;;;;5045840;28;21589;-89
2021/08/06 20:45:22;;;;;;;7.40;3.15;;;15.60;99.90;;;;;;5039722;28;20466;-90
2021/08/06 20:48:14;;;;;;;5.53;3.20;;;15.50;99.90;;;;;;5039853;28;20044;-89
2021/08/06 20:51:02;;;;;;;7.95;3.90;;;15.50;99.90;;;;;;5045172;28;20078;-90
2021/08/06 20:53:55;;;;;;;7.03;3.25;;;15.40;99.90;;;;;;5042505;28;20485;-88
2021/08/06 20:56:42;;;;;;;6.40;3.67;;;15.30;99.90;;;;;;5030494;28;20077;-90
2021/08/06 20:59:29;;;;;;;5.28;2.95;;;15.10;99.90;;;;;;5044072;28;20045;-89
2021/08/06 21:02:17;;;;;;;5.10;2.90;;;15.00;99.90;;;;;;5043232;28;20096;-89
2021/08/06 21:05:05;;;;;;;6.47;2.97;;;14.90;99.90;;;;;;5022745;28;20188;-88
2021/08/06 21:07:52;;;;;;;7.68;3.13;;;14.90;99.90;;;;;;5033034;28;20096;-87
2021/08/06 21:10:40;;;;;;;6.90;4.70;;;14.90;99.90;;;;;;5037232;28;20439;-90
2021/08/06 21:13:29;;;;;;;10.77;4.47;;;14.90;99.90;;;;;;5036204;28;20049;-89
2021/08/06 21:16:16;;;;;;;8.23;3.85;;;14.90;99.90;;;;;;5033625;28;20064;-89
2021/08/06 21:19:06;;;;;;;9.30;4.72;;;14.80;99.90;;;;;;5047349;28;20450;-92
2021/08/06 21:21:53;;;;;;;7.10;4.15;;;14.80;99.90;;;;;;5026541;28;20509;-89
2021/08/06 21:24:41;;;;;;;7.72;4.38;;;14.80;99.90;;;;;;5038173;28;20052;-90
2021/08/06 21:27:28;;;;;;;5.60;3.35;;;14.70;99.90;;;;;;5048239;28;20195;-89
2021/08/06 21:30:18;;;;;;;7.00;4.43;;;14.60;99.90;;;;;;5049608;28;20049;-89
2021/08/06 21:33:05;;;;;;;9.90;5.63;;;14.60;99.90;;;;;;5037776;28;20143;-87
2021/08/06 21:35:53;;;;;;;8.65;5.43;;;14.60;99.90;;;;;;5040972;28;20049;-88
2021/08/06 21:38:45;;;;;;;7.82;5.53;;;14.50;99.90;;;;;;5052044;28;20056;-87
2021/08/06 21:41:32;;;;;;;9.25;5.18;;;14.60;99.90;;;;;;5056679;28;20045;-87
2021/08/06 21:44:20;;;;;;;11.15;5.38;;;14.60;99.90;;;;;;5043259;28;20044;-87
2021/08/06 21:47:07;;;;;;;9.25;4.95;;;14.50;99.90;;;;;;5045446;28;20077;-88
2021/08/06 21:49:55;;;;;;;7.70;4.68;;;14.40;99.90;;;;;;5046983;28;20048;-87
2021/08/06 21:52:42;;;;;;;7.18;4.70;;;14.30;99.90;;;;;;5064533;28;20094;-87
2021/08/06 21:55:29;;;;;;;10.02;4.60;;;14.20;99.90;;;;;;5067089;28;20061;-88
2021/08/06 21:58:19;;;;;;;6.80;4.55;;;14.10;99.90;;;;;;5047271;28;20063;-89
2021/08/06 22:01:06;;;;;;;11.30;5.00;;;14.10;99.90;;;;;;5057966;28;20041;-87
2021/08/06 22:03:53;;;;;;;7.72;4.20;;;14.00;99.90;;;;;;5051764;28;20045;-89
2021/08/06 22:06:41;;;;;;;7.05;4.07;;;14.00;99.90;;;;;;5056492;28;20052;-87
2021/08/06 22:09:28;;;;;;;8.07;4.15;;;13.90;99.90;;;;;;5058304;28;20037;-88
2021/08/06 22:12:19;;;;;;;8.77;4.40;;;14.00;99.90;;;;;;5048038;28;20468;-87
2021/08/06 22:15:07;;;;;;;8.13;4.85;;;14.00;99.90;;;;;;5070328;28;20139;-88
2021/08/06 22:17:54;;;;;;;8.57;4.72;;;14.00;99.90;;;;;;5069302;28;20044;-87
2021/08/06 22:20:44;;;;;;;8.20;5.75;;;13.90;99.90;;;;;;5051157;28;20041;-87
2021/08/06 22:23:31;;;;;;;10.00;4.80;;;14.00;99.90;;;;;;5064431;28;20040;-87
2021/08/06 22:26:18;;;;;;;11.57;5.18;;;14.00;99.90;;;;;;5062407;28;20056;-87
2021/08/06 22:29:06;;;;;;;7.32;4.40;;;13.90;99.90;;;;;;5063755;28;20485;-86
2021/08/06 22:31:53;;;;;;;7.03;4.03;;;13.80;99.90;;;;;;5062210;28;20043;-87
2021/08/06 22:34:45;;;;;;;8.32;3.30;;;13.80;99.90;;;;;;5050026;28;20132;-87
2021/08/06 22:37:32;;;;;;;8.68;3.50;;;13.80;99.90;;;;;;5064077;28;20426;-88
2021/08/06 22:40:19;;;;;;;9.40;3.38;;;13.80;99.90;;;;;;5044134;28;20146;-87
2021/08/06 22:43:06;;;;;;;6.70;3.67;;;13.80;99.90;;;;;;5056285;28;20121;-87
2021/08/06 22:45:56;;;;;;;8.32;3.13;;;13.80;99.90;;;;;;5070190;28;20052;-88
2021/08/06 22:48:46;;;;;;;7.50;3.78;;;13.80;99.90;;;;;;5046947;28;20044;-86
2021/08/06 22:51:33;;;;;;;5.32;3.67;;;13.70;99.90;;;;;;5064977;28;20532;-88
2021/08/06 22:54:20;;;;;;;9.40;4.05;;;13.60;99.90;;;;;;5068336;28;20141;-87
2021/08/06 22:57:07;;;;;;;9.88;4.20;;;13.50;99.90;;;;;;5045440;28;20120;-87
2021/08/06 22:59:55;;;;;;;6.63;4.13;;;13.40;99.90;;;;;;5055873;28;20111;-87
2021/08/06 23:02:46;;;;;;;9.35;4.15;;;13.30;99.90;;;;;;5043915;28;20437;-87
2021/08/06 23:05:33;;;;;;;9.73;4.97;;;13.20;99.90;;;;;;5064497;28;20110;-88
2021/08/06 23:08:21;;;;;;;9.05;4.22;;;13.10;99.90;;;;;;5053710;28;20090;-88
2021/08/06 23:11:10;;;;;;;11.18;4.95;;;13.00;99.90;;;;;;5031622;28;20045;-86
2021/08/06 23:13:58;;;;;;;7.72;4.43;;;13.00;99.90;;;;;;5064017;28;20036;-87
2021/08/06 23:16:45;;;;;;;10.52;5.00;;;13.10;99.90;;;;;;5069271;28;20087;-86
2021/08/06 23:19:32;;;;;;;8.07;5.03;;;13.00;99.90;;;;;;5054033;28;20573;-87
2021/08/06 23:22:22;;;;;;;10.07;5.00;;;13.00;99.90;;;;;;5058979;28;20048;-90
2021/08/06 23:25:11;;;;;;;8.48;5.03;;;13.00;99.90;;;;;;5055114;28;20075;-88
2021/08/06 23:27:58;;;;;;;8.30;4.85;;;13.00;99.90;;;;;;5070811;28;20068;-87
2021/08/06 23:30:48;;;;;;;9.23;4.85;;;13.00;99.90;;;;;;5057253;28;20119;-89
2021/08/06 23:33:35;;;;;;;10.18;4.75;;;13.00;99.90;;;;;;5044754;28;20045;-89
2021/08/06 23:36:23;;;;;;;12.15;4.53;;;13.00;99.90;;;;;;5067633;28;20487;-88
2021/08/06 23:39:12;;;;;;;8.77;4.88;;;13.00;99.90;;;;;;5061744;28;20059;-88
2021/08/06 23:41:59;;;;;;;8.15;5.00;;;13.00;99.90;;;;;;5066281;28;20170;-88
2021/08/06 23:44:47;;;;;;;9.38;4.80;;;13.00;99.90;;;;;;5068397;28;20471;-87
2021/08/06 23:47:36;;;;;;;7.95;4.63;;;12.90;99.90;;;;;;5057905;28;20052;-87
2021/08/06 23:50:24;;;;;;;7.68;5.03;;;12.90;99.90;;;;;;5067412;28;20082;-87